Date,TemperatureHighF,TemperatureAvgF,TemperatureLowF,DewpointHighF,DewpointAvgF,DewpointLowF,HumidityHigh,HumidityAvg,HumidityLow,PressureMaxIn,PressureMinIn,WindSpeedMaxMPH,WindSpeedAvgMPH,GustSpeedMaxMPH,PrecipitationSumIn
2013-5-18,80.1,79.1,75.4,69.9,69.4,67.8,78,72,70,29.95,29.92,7,4,10,0.00
2013-5-19,66.7,63.9,61.3,64.1,62.0,59.9,95,94,90,30.02,29.85,8,1,12,0.00
2013-5-20,86.4,71.4,56.8,73.8,65.2,55.7,96,82,62,30.02,29.89,6,1,8,0.00
2013-5-21,92.5,77.0,63.1,72.9,66.7,61.4,96,73,43,29.95,29.78,10,2,15,0.00
2013-5-22,88.5,75.5,64.2,71.0,66.3,62.5,95,75,50,29.84,29.75,10,2,14,0.00
2013-5-23,83.8,73.5,62.1,69.8,60.2,53.5,96,66,39,29.94,29.84,18,4,24,0.00
2013-5-24,72.0,67.4,59.4,56.7,49.6,44.1,84,55,41,30.15,29.94,11,3,15,0.00
2013-5-25,70.9,70.9,70.9,46.0,46.0,46.0,41,41,41,30.14,30.14,4,4,10,0.00
2013-5-26,70.9,70.9,70.9,46.0,46.0,46.0,41,41,41,30.14,30.14,4,4,10,0.00
2013-5-27,90.9,76.3,68.2,67.2,56.6,46.0,83,52,32,30.14,29.99,9,2,17,0.00
2013-5-28,90.3,74.8,61.5,66.2,61.9,58.3,91,67,38,30.08,29.98,8,1,12,0.00
2013-5-29,91.0,75.6,63.7,67.2,62.7,59.4,88,67,39,30.11,30.00,7,2,11,0.00
2013-5-30,86.7,74.8,64.4,70.3,65.3,61.6,94,74,51,30.12,29.99,9,2,15,0.00
2013-5-31,87.3,74.7,66.7,70.8,66.5,64.7,93,77,51,30.08,29.94,9,2,13,0.00
2013-6-1,88.5,75.8,68.9,74.3,68.4,64.2,94,79,53,29.98,29.86,11,2,22,0.01
2013-6-2,87.3,74.0,66.7,74.3,69.2,64.7,96,86,59,29.90,29.78,7,1,12,0.00
2013-6-3,86.7,73.6,64.9,68.0,63.9,59.9,94,74,45,29.92,29.81,11,2,14,0.00
2013-6-4,89.2,73.7,60.4,70.4,62.8,58.6,95,71,40,29.94,29.87,5,1,8,0.00
2013-6-5,85.8,70.9,64.4,71.7,64.9,59.3,94,82,61,29.96,29.86,17,2,23,0.00
2013-6-6,88.0,74.9,68.4,73.0,69.3,66.9,96,84,59,29.84,29.66,4,1,6,0.00
2013-6-7,85.6,72.8,66.4,69.5,67.2,64.7,96,84,54,29.79,29.64,7,2,10,0.00
2013-6-8,88.5,74.6,64.6,68.0,64.0,60.5,95,73,41,29.97,29.78,4,1,8,0.00
2013-6-9,83.5,74.7,65.3,74.0,69.1,62.8,94,83,67,30.00,29.86,8,1,11,0.00
2013-6-10,91.6,76.3,68.4,70.5,67.2,62.1,95,76,41,29.90,29.80,8,1,12,0.00
2013-6-11,94.6,79.1,69.1,75.2,70.5,65.8,94,77,46,29.95,29.86,8,2,12,0.00
2013-6-12,73.8,73.1,72.1,71.0,69.6,69.0,91,89,87,29.94,29.92,6,3,10,0.00
2013-6-13,91.6,78.8,69.8,76.5,71.0,66.7,93,78,56,29.88,29.68,8,3,12,0.00
2013-6-14,89.2,76.3,61.3,66.8,62.2,56.4,92,66,40,29.93,29.81,4,1,6,0.00
2013-6-15,91.8,75.9,61.9,70.1,63.4,58.6,90,68,43,30.03,29.94,5,1,8,0.00
2013-6-16,91.4,75.6,64.6,75.0,67.6,61.5,93,78,48,30.04,29.91,2,0,3,0.01
2013-6-17,87.1,73.9,68.4,76.0,69.7,66.6,94,88,61,29.96,29.84,4,0,7,0.00
2013-6-18,88.9,75.6,67.5,73.7,69.3,64.9,96,82,54,30.55,29.78,7,1,14,0.00
2013-6-19,90.0,74.9,64.2,72.3,66.4,61.4,95,77,44,29.99,27.60,6,1,8,0.00
2013-6-20,91.6,77.4,65.8,74.0,67.2,62.4,94,73,44,30.77,29.98,10,0,14,0.00
2013-6-21,89.6,76.2,65.7,73.1,67.6,63.9,95,77,46,30.16,30.05,4,1,8,0.00
2013-6-22,91.8,77.9,65.5,70.6,66.3,62.7,94,70,40,30.14,29.99,4,1,8,0.00
2013-6-23,93.9,77.7,64.9,75.0,67.7,62.2,93,73,44,30.11,29.99,6,1,9,0.00
2013-6-24,93.2,78.4,68.0,75.6,69.7,65.3,93,76,50,30.13,29.99,5,1,9,0.00
2013-6-25,72.9,72.9,72.5,69.1,69.1,68.8,88,88,88,30.05,30.04,2,2,3,0.00
2013-6-26,72.9,72.9,72.9,69.1,69.1,69.1,88,88,88,30.04,30.04,2,2,3,0.00
2013-6-27,72.9,72.9,72.9,69.1,69.1,69.1,88,88,88,30.04,30.04,2,2,3,0.00
2013-6-28,72.9,72.9,72.9,69.1,69.1,69.1,88,88,88,30.04,30.04,2,2,3,0.00
2013-6-29,72.9,72.9,72.9,69.1,69.1,69.1,88,88,88,30.04,30.04,2,2,3,0.00
2013-6-30,72.9,72.9,72.9,69.1,69.1,69.1,88,88,88,30.04,30.04,2,2,3,0.00
2014-1-2,86.7,71.5,59.4,67.3,60.8,54.5,86,71,46,29.57,29.39,0,0,0,0.00